createdAt,value
2019-02-14T00:00:44.161Z,67.27
2019-02-14T00:03:33.057Z,67.27
2019-02-14T00:06:06.148Z,67.26
2019-02-14T00:08:37.048Z,67.22
2019-02-14T00:11:07.823Z,67.15
2019-02-14T00:13:40.855Z,67.16
2019-02-14T00:16:11.691Z,67.17
2019-02-14T00:18:44.044Z,67.18
2019-02-14T00:21:14.976Z,67.15
2019-02-14T00:24:16.433Z,67.15
2019-02-14T00:26:51.206Z,67.15
2019-02-14T00:29:25.911Z,67.15
2019-02-14T00:32:16.315Z,67.18
2019-02-14T00:34:47.347Z,67.21
2019-02-14T00:37:21.662Z,67.21
2019-02-14T00:39:57.961Z,67.22
2019-02-14T00:42:33.522Z,67.22
2019-02-14T00:45:06.093Z,67.22
2019-02-14T00:47:42.632Z,67.16
2019-02-14T00:50:18.262Z,67.12
2019-02-14T00:52:57.218Z,67.11
2019-02-14T00:55:36.767Z,67.11
2019-02-14T00:58:19.043Z,67.15
2019-02-14T01:01:04.142Z,67.16
2019-02-14T01:03:45.110Z,67.19
2019-02-14T01:06:21.641Z,67.20
2019-02-14T01:09:00.509Z,67.19
2019-02-14T01:12:01.993Z,67.17
2019-02-14T01:14:41.534Z,67.16
2019-02-14T01:17:19.486Z,67.21
2019-02-14T01:19:59.140Z,67.22
2019-02-14T01:22:40.631Z,67.23
2019-02-14T01:25:23.864Z,67.24
2019-02-14T01:28:11.291Z,67.23
2019-02-14T01:30:59.371Z,67.23
2019-02-14T01:33:35.386Z,67.25
2019-02-14T01:36:25.627Z,67.24
2019-02-14T01:39:15.137Z,67.25
2019-02-14T01:41:55.623Z,67.25
2019-02-14T01:44:31.751Z,67.24
2019-02-14T01:47:09.381Z,67.25
2019-02-14T01:49:56.359Z,67.31
2019-02-14T01:52:46.152Z,67.32
2019-02-14T01:55:16.783Z,67.38
2019-02-14T01:58:07.533Z,67.39
2019-02-14T02:00:44.579Z,67.38
2019-02-14T02:03:30.055Z,67.41
2019-02-14T02:06:24.998Z,67.42
2019-02-14T02:08:57.026Z,67.40
2019-02-14T02:11:40.875Z,67.35
2019-02-14T02:14:20.244Z,67.35
2019-02-14T02:17:03.314Z,67.31
2019-02-14T02:19:39.902Z,67.26
2019-02-14T02:22:19.926Z,67.22
2019-02-14T02:25:30.638Z,67.22
2019-02-14T02:28:15.526Z,67.18
2019-02-14T02:30:51.011Z,67.19
2019-02-14T02:33:42.859Z,67.20
2019-02-14T02:36:39.948Z,67.21
2019-02-14T02:39:20.804Z,67.20
2019-02-14T02:41:58.596Z,67.21
2019-02-14T02:44:44.257Z,67.24
2019-02-14T02:47:20.855Z,67.21
2019-02-14T02:49:57.452Z,67.21
2019-02-14T02:52:48.840Z,67.22
2019-02-14T02:55:26.450Z,67.21
2019-02-14T02:58:23.556Z,67.21
2019-02-14T03:00:59.023Z,67.17
2019-02-14T03:03:41.108Z,67.18
2019-02-14T03:06:37.064Z,67.16
2019-02-14T03:09:23.897Z,67.13
2019-02-14T03:12:32.327Z,67.11
2019-02-14T03:15:21.548Z,67.11
2019-02-14T03:18:05.822Z,67.13
2019-02-14T03:20:42.377Z,67.09
2019-02-14T03:23:41.836Z,67.07
2019-02-14T03:26:25.300Z,67.09
2019-02-14T03:29:28.260Z,67.09
2019-02-14T03:32:09.956Z,67.13
2019-02-14T03:35:11.195Z,67.19
2019-02-14T03:38:01.079Z,67.26
2019-02-14T03:41:03.506Z,67.37
2019-02-14T03:44:04.037Z,67.43
2019-02-14T03:47:06.136Z,67.48
2019-02-14T03:50:07.360Z,67.53
2019-02-14T03:52:57.584Z,67.55
2019-02-14T03:55:46.319Z,67.58
2019-02-14T04:02:03.973Z,67.65
2019-02-14T04:04:45.950Z,67.68
2019-02-14T04:11:10.280Z,67.75
2019-02-14T04:13:44.139Z,67.78
2019-02-14T04:16:51.712Z,67.76
2019-02-14T04:19:49.136Z,67.80
2019-02-14T04:22:34.341Z,67.81
2019-02-14T04:28:51.165Z,67.81
2019-02-14T04:31:58.133Z,67.82
2019-02-14T04:34:52.929Z,67.85
2019-02-14T04:37:35.470Z,67.86
2019-02-14T04:43:29.876Z,67.91
2019-02-14T04:46:20.741Z,67.91
2019-02-14T04:49:11.546Z,67.93
2019-02-14T04:52:12.598Z,67.96
2019-02-14T04:55:03.234Z,67.99
2019-02-14T05:01:21.875Z,67.98
2019-02-14T05:04:39.940Z,67.97
2019-02-14T05:07:35.172Z,67.99
2019-02-14T05:11:04.558Z,68.04
2019-02-14T05:16:42.896Z,68.09
2019-02-14T05:26:44.807Z,68.18
2019-02-14T05:30:20.969Z,68.18
2019-02-14T05:36:32.467Z,68.19
2019-02-14T05:39:44.943Z,68.24
2019-02-14T05:48:50.639Z,68.36
2019-02-14T05:51:51.214Z,68.39
2019-02-14T05:54:33.875Z,68.41
2019-02-14T05:57:23.618Z,68.43
2019-02-14T06:10:08.223Z,68.52
2019-02-14T06:12:59.777Z,68.54
2019-02-14T06:15:50.847Z,68.56
2019-02-14T06:18:56.430Z,68.58
2019-02-14T06:22:06.000Z,68.59
2019-02-14T06:25:07.035Z,68.58
2019-02-14T06:28:03.914Z,68.62
2019-02-14T06:31:03.431Z,68.64
2019-02-14T06:34:16.862Z,68.67
2019-02-14T06:44:12.278Z,68.73
2019-02-14T06:54:36.512Z,68.80
2019-02-14T07:00:35.023Z,68.85
2019-02-14T07:07:06.367Z,68.87
2019-02-14T07:23:31.772Z,68.97
2019-02-14T07:27:02.751Z,69.00
2019-02-14T07:29:44.747Z,69.03
2019-02-14T07:33:38.042Z,69.04
2019-02-14T07:42:21.761Z,69.11
2019-02-14T07:45:12.417Z,69.14
2019-02-14T07:53:59.763Z,69.20
2019-02-14T07:57:24.497Z,69.22
2019-02-14T08:00:22.940Z,69.26
2019-02-14T08:03:06.226Z,69.28
2019-02-14T08:07:47.601Z,69.33
2019-02-14T08:09:59.892Z,69.35
2019-02-14T08:21:05.868Z,69.47
2019-02-14T08:23:33.879Z,69.51
2019-02-14T08:30:27.945Z,69.57
2019-02-14T08:36:59.234Z,69.62
2019-02-14T08:48:37.413Z,69.84
2019-02-14T08:51:53.192Z,69.87
2019-02-14T09:07:17.602Z,69.90
2019-02-14T09:10:19.251Z,69.90
2019-02-14T09:13:25.629Z,70.10
2019-02-14T09:16:44.295Z,70.11
2019-02-14T09:19:29.337Z,70.16
2019-02-14T09:22:22.110Z,70.33
2019-02-14T09:25:22.802Z,70.33
2019-02-14T09:28:25.492Z,70.26
2019-02-14T09:31:26.832Z,70.29
2019-02-14T09:38:03.740Z,70.38
2019-02-14T09:41:21.213Z,70.41
2019-02-14T09:44:33.085Z,70.45
2019-02-14T09:47:36.374Z,70.52
2019-02-14T09:50:43.676Z,70.57
2019-02-14T09:54:07.591Z,70.61
2019-02-14T09:56:25.948Z,70.66
2019-02-14T09:59:19.995Z,70.70
2019-02-14T10:05:14.757Z,70.78
2019-02-14T10:08:12.385Z,70.81
2019-02-14T10:11:04.547Z,70.85
2019-02-14T10:14:07.163Z,70.88
2019-02-14T10:16:47.243Z,70.90
2019-02-14T10:22:44.420Z,70.98
2019-02-14T10:25:24.078Z,71.00
2019-02-14T10:27:56.933Z,71.04
2019-02-14T10:30:29.390Z,71.07
2019-02-14T10:32:59.942Z,71.10
2019-02-14T10:35:31.402Z,71.14
2019-02-14T10:38:09.212Z,71.20
2019-02-14T10:40:35.886Z,71.22
2019-02-14T10:43:06.421Z,71.26
2019-02-14T10:45:59.418Z,71.29
2019-02-14T10:48:44.933Z,71.33
2019-02-14T10:51:45.032Z,71.38
2019-02-14T10:54:36.333Z,71.41
2019-02-14T10:57:16.578Z,71.46
2019-02-14T11:00:07.211Z,71.51
2019-02-14T11:05:43.134Z,71.55
2019-02-14T11:08:31.362Z,71.58
2019-02-14T11:11:01.092Z,71.60
2019-02-14T11:13:42.207Z,71.64
2019-02-14T11:16:42.619Z,71.68
2019-02-14T11:19:31.713Z,71.69
2019-02-14T11:22:13.661Z,71.74
2019-02-14T11:24:59.311Z,71.79
2019-02-14T11:27:43.159Z,71.82
2019-02-14T11:30:49.222Z,71.86
2019-02-14T11:33:41.273Z,71.92
2019-02-14T11:36:14.351Z,72.02
2019-02-14T11:39:04.155Z,72.05
2019-02-14T11:41:49.807Z,72.10
2019-02-14T11:44:27.977Z,72.11
2019-02-14T11:47:18.682Z,72.13
2019-02-14T11:50:02.519Z,72.15
2019-02-14T11:52:48.360Z,72.18
2019-02-14T11:55:28.072Z,72.18
2019-02-14T11:58:11.069Z,72.19
2019-02-14T12:04:34.274Z,72.21
2019-02-14T12:07:40.369Z,72.24
2019-02-14T12:10:46.820Z,72.25
2019-02-14T12:13:54.598Z,72.27
2019-02-14T12:16:46.216Z,72.29
2019-02-14T12:19:43.321Z,72.30
2019-02-14T12:22:31.916Z,72.34
2019-02-14T12:25:00.320Z,72.38
2019-02-14T12:27:58.756Z,72.43
2019-02-14T12:30:49.292Z,72.47
2019-02-14T12:33:59.002Z,72.49
2019-02-14T12:37:06.576Z,72.54
2019-02-14T12:39:43.552Z,72.57
2019-02-14T12:42:56.204Z,72.61
2019-02-14T12:45:54.946Z,72.61
2019-02-14T12:49:08.788Z,72.60
2019-02-14T12:51:55.189Z,72.62
2019-02-14T12:54:51.561Z,72.65
2019-02-14T12:57:50.394Z,72.66
2019-02-14T13:03:49.635Z,72.68
2019-02-14T13:10:07.799Z,72.73
2019-02-14T13:13:11.409Z,72.71
2019-02-14T13:16:15.385Z,72.70
2019-02-14T13:19:48.758Z,72.72
2019-02-14T13:22:35.524Z,72.73
2019-02-14T13:25:37.728Z,72.72
2019-02-14T13:28:29.513Z,72.74
2019-02-14T13:31:35.473Z,72.75
2019-02-14T13:34:27.379Z,72.73
2019-02-14T13:38:15.725Z,72.77
2019-02-14T13:41:17.276Z,72.78
2019-02-14T13:44:52.999Z,72.81
2019-02-14T13:47:24.792Z,72.82
2019-02-14T13:50:41.154Z,72.84
2019-02-14T13:53:48.954Z,72.86
2019-02-14T13:56:57.183Z,72.88
2019-02-14T14:00:13.299Z,72.89
2019-02-14T14:03:32.161Z,72.88
2019-02-14T14:06:42.690Z,72.91
2019-02-14T14:16:45.421Z,72.93
2019-02-14T14:32:42.785Z,73.00
2019-02-14T14:35:34.933Z,72.99
2019-02-14T14:57:09.163Z,73.05
2019-02-14T14:59:59.719Z,73.04
2019-02-14T15:02:30.397Z,73.06
2019-02-14T15:05:04.127Z,73.08
2019-02-14T15:07:37.347Z,73.08
2019-02-14T15:10:22.756Z,73.09
2019-02-14T15:12:52.184Z,73.10
2019-02-14T15:15:34.471Z,73.11
2019-02-14T15:19:13.436Z,73.11
2019-02-14T15:44:10.225Z,73.19
2019-02-14T16:28:21.583Z,73.27
2019-02-14T16:34:28.488Z,73.29
2019-02-14T16:36:59.723Z,73.29
2019-02-14T16:39:54.641Z,73.30
2019-02-14T16:42:26.475Z,73.28
2019-02-14T16:45:01.231Z,73.29
2019-02-14T16:47:35.973Z,73.28
2019-02-14T16:50:10.073Z,73.30
2019-02-14T16:52:44.111Z,73.30
2019-02-14T16:55:21.706Z,73.29
2019-02-14T16:57:53.799Z,73.32
2019-02-14T17:00:39.529Z,73.34
2019-02-14T17:37:21.266Z,73.39
2019-02-14T17:41:26.482Z,73.40
2019-02-14T18:07:37.807Z,73.49
2019-02-14T18:11:41.586Z,73.51
2019-02-14T18:13:51.517Z,73.50
2019-02-14T18:35:15.017Z,73.57
2019-02-14T18:41:36.333Z,73.59
2019-02-14T19:13:21.979Z,73.71
2019-02-14T19:25:52.242Z,73.72
2019-02-14T19:28:49.380Z,73.74
2019-02-14T19:37:41.421Z,73.74
2019-02-14T19:40:40.121Z,73.78
2019-02-14T19:47:46.940Z,73.79
2019-02-14T19:54:18.244Z,73.81
2019-02-14T20:17:52.354Z,73.90
2019-02-14T20:24:17.773Z,73.94
2019-02-14T20:27:32.872Z,73.94
2019-02-14T20:31:11.541Z,73.97
2019-02-14T20:35:19.414Z,73.96
2019-02-14T20:38:04.210Z,74.00
2019-02-14T20:41:20.061Z,74.03
2019-02-14T20:48:01.233Z,74.04
2019-02-14T20:50:32.559Z,74.04
2019-02-14T21:40:03.230Z,74.24
2019-02-14T21:46:24.561Z,74.24
2019-02-14T21:56:10.174Z,74.28
2019-02-14T22:08:15.845Z,74.33
2019-02-14T22:20:20.511Z,74.38
2019-02-14T22:24:00.365Z,74.38
2019-02-14T22:38:52.392Z,74.46
2019-02-14T22:42:08.911Z,74.50
2019-02-14T22:45:18.037Z,74.48
2019-02-14T22:48:45.862Z,74.53
2019-02-14T22:54:21.433Z,74.53
2019-02-14T22:57:44.900Z,74.56
2019-02-14T23:00:51.324Z,74.56
2019-02-14T23:03:53.390Z,74.59
2019-02-14T23:07:03.331Z,74.61
2019-02-14T23:13:04.391Z,74.67
2019-02-14T23:19:26.618Z,74.69
2019-02-14T23:22:04.618Z,74.68
2019-02-14T23:28:06.798Z,74.75
2019-02-14T23:31:12.177Z,74.77
2019-02-14T23:34:33.410Z,74.75
2019-02-14T23:37:21.195Z,74.76
2019-02-14T23:40:36.092Z,74.82
2019-02-14T23:43:34.495Z,74.81
2019-02-14T23:46:31.792Z,74.84
2019-02-14T23:49:29.854Z,74.84
2019-02-14T23:52:47.094Z,74.86
2019-02-14T23:55:44.191Z,74.85
